Time;durP1;ratioP1;P1;durP2;ratioP2;P2;SDS_P1;SDS_P2;PMS_P1;PMS_P2;Temp;Humidity;BMP_temperature;BMP_pressure;BME280_temperature;BME280_humidity;BME280_pressure;Samples;Min_cycle;Max_cycle;Signal;HPM_P1;HPM_P2
2021/09/09 00:01:24;;;;;;;;;;;17.00;92.90;;;;;;5065809;28;19920;-79
2021/09/09 00:03:49;;;;;;;;;;;17.00;92.90;;;;;;5060128;28;20430;-78
2021/09/09 00:06:15;;;;;;;;;;;17.00;92.90;;;;;;5061950;28;20338;-80
2021/09/09 00:08:40;;;;;;;;;;;17.00;93.00;;;;;;5065239;28;19952;-79
2021/09/09 00:11:06;;;;;;;;;;;17.00;93.20;;;;;;5076541;28;20286;-80
2021/09/09 00:13:31;;;;;;;;;;;17.00;93.10;;;;;;5058463;28;20341;-84
2021/09/09 00:15:57;;;;;;;;;;;17.00;93.10;;;;;;5061212;28;19913;-84
2021/09/09 00:18:22;;;;;;;;;;;17.00;93.10;;;;;;5060383;28;20371;-84
2021/09/09 00:20:47;;;;;;;;;;;17.00;93.10;;;;;;5075637;28;19916;-84
2021/09/09 00:23:13;;;;;;;;;;;17.00;93.30;;;;;;5078159;28;19970;-84
2021/09/09 00:25:38;;;;;;;;;;;16.90;93.20;;;;;;5077270;28;19924;-82
2021/09/09 00:28:04;;;;;;;;;;;16.90;93.40;;;;;;5060528;28;19916;-84
2021/09/09 00:30:29;;;;;;;;;;;16.90;93.40;;;;;;5079900;28;19924;-84
2021/09/09 00:32:55;;;;;;;;;;;16.80;93.30;;;;;;5072800;28;20202;-84
2021/09/09 00:35:20;;;;;;;;;;;16.80;93.70;;;;;;5059927;28;20324;-84
2021/09/09 00:37:46;;;;;;;;;;;16.70;93.50;;;;;;5061169;28;19925;-84
2021/09/09 00:40:11;;;;;;;;;;;16.70;93.50;;;;;;5066507;28;20348;-84
2021/09/09 00:42:38;;;;;;;;;;;16.70;93.50;;;;;;5076201;28;19916;-84
2021/09/09 00:45:04;;;;;;;;;;;16.60;93.70;;;;;;5061795;28;19940;-84
2021/09/09 00:47:29;;;;;;;;;;;16.60;93.90;;;;;;5067550;28;19960;-84
2021/09/09 00:49:54;;;;;;;;;;;16.60;94.00;;;;;;5060847;28;19909;-84
2021/09/09 00:52:20;;;;;;;;;;;16.60;93.90;;;;;;5065315;28;19936;-83
2021/09/09 00:54:46;;;;;;;;;;;16.60;93.90;;;;;;5076276;28;20354;-84
2021/09/09 00:57:13;;;;;;;;;;;16.50;93.90;;;;;;5068369;28;19912;-85
2021/09/09 00:59:39;;;;;;;;;;;16.50;93.90;;;;;;5060915;28;19970;-85
2021/09/09 01:02:04;;;;;;;;;;;16.50;94.20;;;;;;5076590;28;19912;-84
2021/09/09 01:04:30;;;;;;;;;;;16.50;94.10;;;;;;5075473;28;20333;-84
2021/09/09 01:06:56;;;;;;;;;;;16.40;94.30;;;;;;5077221;28;19909;-84
2021/09/09 01:09:22;;;;;;;;;;;16.40;94.30;;;;;;5073169;28;19926;-84
2021/09/09 01:11:48;;;;;;;;;;;16.40;94.10;;;;;;5058427;28;20002;-83
2021/09/09 01:14:15;;;;;;;;;;;16.40;94.10;;;;;;5068691;28;19978;-83
2021/09/09 01:16:41;;;;;;;;;;;16.40;94.00;;;;;;5071483;28;20003;-84
2021/09/09 01:19:07;;;;;;;;;;;16.40;94.10;;;;;;5082332;28;19908;-84
2021/09/09 01:21:33;;;;;;;;;;;16.40;94.20;;;;;;5069486;28;19909;-83
2021/09/09 01:23:58;;;;;;;;;;;16.40;94.20;;;;;;5071534;28;19970;-84
2021/09/09 01:26:27;;;;;;;;;;;16.40;94.20;;;;;;5063976;28;19959;-84
2021/09/09 01:28:53;;;;;;;;;;;16.30;94.00;;;;;;5062391;28;19917;-84
2021/09/09 01:31:18;;;;;;;;;;;16.30;94.10;;;;;;5078189;28;19913;-83
2021/09/09 01:33:43;;;;;;;;;;;16.30;94.50;;;;;;5060616;28;19915;-83
2021/09/09 01:36:09;;;;;;;;;;;16.30;94.50;;;;;;5069206;28;19908;-84
2021/09/09 01:38:34;;;;;;;;;;;16.30;94.40;;;;;;5067666;28;19909;-83
2021/09/09 01:41:00;;;;;;;;;;;16.30;94.50;;;;;;5059920;28;19923;-84
2021/09/09 01:43:25;;;;;;;;;;;16.30;94.40;;;;;;5060711;28;19912;-83
2021/09/09 01:45:51;;;;;;;;;;;16.30;94.60;;;;;;5063718;28;19908;-84
2021/09/09 01:48:16;;;;;;;;;;;16.30;94.40;;;;;;5051778;28;20003;-84
2021/09/09 01:50:42;;;;;;;;;;;16.30;94.50;;;;;;5057902;28;19985;-83
2021/09/09 01:53:07;;;;;;;;;;;16.30;94.70;;;;;;5074982;28;19928;-83
2021/09/09 01:55:33;;;;;;;;;;;16.30;94.60;;;;;;5071749;28;20354;-84
2021/09/09 01:57:58;;;;;;;;;;;16.20;94.30;;;;;;5080626;28;19915;-84
2021/09/09 02:00:24;;;;;;;;;;;16.10;94.40;;;;;;5069863;28;19917;-83
2021/09/09 02:02:49;;;;;;;;;;;16.10;94.70;;;;;;5065320;28;19912;-83
2021/09/09 02:05:14;;;;;;;;;;;16.10;94.70;;;;;;5070802;28;19995;-83
2021/09/09 02:07:40;;;;;;;;;;;16.10;94.70;;;;;;5072570;28;19951;-83
2021/09/09 02:10:06;;;;;;;;;;;16.00;94.60;;;;;;5072231;28;20627;-84
2021/09/09 02:12:32;;;;;;;;;;;16.00;94.70;;;;;;5061431;28;19920;-83
2021/09/09 02:14:57;;;;;;;;;;;16.00;94.90;;;;;;5058854;28;19963;-84
2021/09/09 02:17:23;;;;;;;;;;;16.00;94.70;;;;;;5063768;28;19932;-83
2021/09/09 02:19:48;;;;;;;;;;;15.90;94.70;;;;;;5069947;28;19959;-83
2021/09/09 02:22:14;;;;;;;;;;;15.90;94.90;;;;;;5071212;28;19913;-83
2021/09/09 02:24:45;;;;;;;;;;;15.90;94.80;;;;;;5067676;28;20320;-83
2021/09/09 02:27:11;;;;;;;;;;;15.80;94.90;;;;;;5085214;28;19909;-84
2021/09/09 02:29:37;;;;;;;;;;;15.80;95.00;;;;;;5061215;28;19971;-84
2021/09/09 02:32:02;;;;;;;;;;;15.80;95.00;;;;;;5073389;28;19928;-84
2021/09/09 02:34:28;;;;;;;;;;;15.80;95.00;;;;;;5080513;28;20020;-83
2021/09/09 02:36:53;;;;;;;;;;;15.80;95.00;;;;;;5083680;28;19923;-84
2021/09/09 02:39:18;;;;;;;;;;;15.90;95.30;;;;;;5070490;28;19912;-84
2021/09/09 02:41:44;;;;;;;;;;;15.80;95.10;;;;;;5067973;28;19915;-84
2021/09/09 02:44:09;;;;;;;;;;;15.90;95.10;;;;;;5069089;28;20024;-84
2021/09/09 02:46:35;;;;;;;;;;;15.80;95.00;;;;;;5078979;28;20031;-84
2021/09/09 02:49:00;;;;;;;;;;;15.80;95.20;;;;;;5067647;28;19948;-84
2021/09/09 02:51:26;;;;;;;;;;;15.80;95.20;;;;;;5066339;28;19932;-84
2021/09/09 02:53:51;;;;;;;;;;;15.80;95.20;;;;;;5074093;28;20299;-84
2021/09/09 02:56:16;;;;;;;;;;;15.70;95.20;;;;;;5063531;28;19908;-84
2021/09/09 02:58:42;;;;;;;;;;;15.70;95.10;;;;;;5075162;28;19921;-84
2021/09/09 03:01:07;;;;;;;;;;;15.60;95.00;;;;;;5063007;28;19913;-84
2021/09/09 03:03:33;;;;;;;;;;;15.50;95.20;;;;;;5054027;28;19908;-84
2021/09/09 03:05:58;;;;;;;;;;;15.50;95.30;;;;;;5080082;28;20394;-84
2021/09/09 03:08:23;;;;;;;;;;;15.40;95.20;;;;;;5085219;28;20430;-84
2021/09/09 03:10:49;;;;;;;;;;;15.40;95.30;;;;;;5052926;28;19909;-84
2021/09/09 03:13:14;;;;;;;;;;;15.30;95.30;;;;;;5059483;28;20285;-84
2021/09/09 03:15:40;;;;;;;;;;;15.20;95.30;;;;;;5061090;28;19939;-84
2021/09/09 03:18:05;;;;;;;;;;;15.20;95.50;;;;;;5065147;28;20618;-84
2021/09/09 03:20:31;;;;;;;;;;;15.10;95.70;;;;;;5069055;28;20372;-84
2021/09/09 03:22:56;;;;;;;;;;;15.10;95.60;;;;;;5068458;28;19967;-84
2021/09/09 03:25:21;;;;;;;;;;;15.10;95.60;;;;;;5085598;28;19958;-84
2021/09/09 03:27:47;;;;;;;;;;;15.10;95.60;;;;;;5075431;28;19958;-84
2021/09/09 03:30:12;;;;;;;;;;;15.10;95.60;;;;;;5061215;28;19913;-84
2021/09/09 03:32:38;;;;;;;;;;;15.10;95.60;;;;;;5076935;28;19992;-84
2021/09/09 03:35:04;;;;;;;;;;;15.00;95.70;;;;;;5064018;28;19916;-84
2021/09/09 03:37:29;;;;;;;;;;;15.00;95.80;;;;;;5064227;28;19908;-84
2021/09/09 03:39:55;;;;;;;;;;;15.00;95.80;;;;;;5075458;28;19908;-84
2021/09/09 03:42:20;;;;;;;;;;;15.00;95.80;;;;;;5065223;28;20502;-84
2021/09/09 03:44:47;;;;;;;;;;;15.00;95.80;;;;;;5057584;28;19962;-84
2021/09/09 03:47:13;;;;;;;;;;;14.90;95.90;;;;;;5059664;28;20007;-83
2021/09/09 03:49:39;;;;;;;;;;;14.90;95.90;;;;;;5077744;28;20020;-84
2021/09/09 03:52:04;;;;;;;;;;;14.90;96.20;;;;;;5055587;28;19990;-84
2021/09/09 03:54:29;;;;;;;;;;;14.90;96.30;;;;;;5074460;28;20012;-84
2021/09/09 03:56:55;;;;;;;;;;;14.90;96.20;;;;;;5056420;28;19913;-84
2021/09/09 03:59:20;;;;;;;;;;;14.80;96.10;;;;;;5074302;28;20273;-84
2021/09/09 04:01:46;;;;;;;;;;;14.80;96.20;;;;;;5055796;28;19916;-84
2021/09/09 04:04:11;;;;;;;;;;;14.80;96.40;;;;;;5057534;28;20001;-79
2021/09/09 04:06:37;;;;;;;;;;;14.80;96.40;;;;;;5058392;28;19964;-84
2021/09/09 04:09:02;;;;;;;;;;;14.80;96.30;;;;;;5057907;28;19921;-84
2021/09/09 04:11:28;;;;;;;;;;;14.80;96.30;;;;;;5056814;28;19913;-82
2021/09/09 04:13:53;;;;;;;;;;;14.80;96.30;;;;;;5073533;28;19925;-84
2021/09/09 04:16:19;;;;;;;;;;;14.80;96.20;;;;;;5054907;28;20012;-83
2021/09/09 04:18:44;;;;;;;;;;;14.80;96.30;;;;;;5058742;28;20366;-84
2021/09/09 04:21:10;;;;;;;;;;;14.80;96.20;;;;;;5056475;28;19916;-80
2021/09/09 04:23:35;;;;;;;;;;;14.80;96.30;;;;;;5057399;28;20095;-85
2021/09/09 04:26:01;;;;;;;;;;;14.90;96.70;;;;;;5058276;28;20399;-84
2021/09/09 04:28:28;;;;;;;;;;;14.90;96.50;;;;;;5060459;28;19923;-82
2021/09/09 04:31:04;;;;;;;;;;;14.80;96.60;;;;;;5068616;28;20409;-84
2021/09/09 04:33:29;;;;;;;;;;;14.80;96.60;;;;;;5060639;28;19909;-84
2021/09/09 04:35:55;;;;;;;;;;;14.90;96.80;;;;;;5061979;28;20315;-84
2021/09/09 04:38:21;;;;;;;;;;;14.90;96.80;;;;;;5060796;28;19913;-84
2021/09/09 04:40:49;;;;;;;;;;;14.80;96.80;;;;;;5031196;28;19999;-85
2021/09/09 04:43:49;;;;;;;;;;;14.90;96.60;;;;;;5066205;28;20523;-84
2021/09/09 04:46:26;;;;;;;;;;;14.90;96.70;;;;;;5045000;28;19913;-84
2021/09/09 04:48:53;;;;;;;;;;;14.90;96.60;;;;;;5066719;28;19920;-84
2021/09/09 04:51:18;;;;;;;;;;;14.80;96.60;;;;;;5066605;28;20331;-85
2021/09/09 04:53:47;;;;;;;;;;;14.90;96.50;;;;;;5075182;28;19916;-85
2021/09/09 04:56:31;;;;;;;;;;;14.80;96.50;;;;;;5072528;28;19913;-86
2021/09/09 04:58:57;;;;;;;;;;;14.80;96.60;;;;;;5036719;28;19950;-86
2021/09/09 05:01:24;;;;;;;;;;;14.80;96.50;;;;;;5022276;28;20027;-84
2021/09/09 05:03:50;;;;;;;;;;;14.80;96.70;;;;;;5053139;28;19916;-85
2021/09/09 05:06:30;;;;;;;;;;;14.90;96.80;;;;;;5061266;28;19925;-84
2021/09/09 05:08:56;;;;;;;;;;;14.90;96.70;;;;;;5057932;28;19999;-82
2021/09/09 05:11:22;;;;;;;;;;;14.90;96.60;;;;;;5059160;28;19923;-81
2021/09/09 05:13:47;;;;;;;;;;;14.90;96.50;;;;;;5074627;28;19921;-81
2021/09/09 05:16:12;;;;;;;;;;;15.00;96.50;;;;;;5058189;28;19917;-81
2021/09/09 05:18:38;;;;;;;;;;;15.00;96.60;;;;;;5059292;28;19936;-81
2021/09/09 05:21:03;;;;;;;;;;;15.00;96.50;;;;;;5064199;28;19923;-81
2021/09/09 05:23:29;;;;;;;;;;;15.10;96.50;;;;;;5058639;28;19991;-81
2021/09/09 05:25:54;;;;;;;;;;;15.10;96.50;;;;;;5057272;28;19971;-81
2021/09/09 05:28:20;;;;;;;;;;;15.20;96.30;;;;;;5059075;28;19908;-81
2021/09/09 05:30:45;;;;;;;;;;;15.30;96.20;;;;;;5059940;28;20307;-81
2021/09/09 05:33:12;;;;;;;;;;;15.40;96.20;;;;;;5066430;28;19912;-81
2021/09/09 05:35:38;;;;;;;;;;;15.40;96.20;;;;;;5058139;28;19924;-81
2021/09/09 05:38:03;;;;;;;;;;;15.50;96.30;;;;;;5074153;28;19924;-81
2021/09/09 05:40:29;;;;;;;;;;;15.50;96.10;;;;;;5059009;28;19991;-80
2021/09/09 05:42:54;;;;;;;;;;;15.50;96.10;;;;;;5058181;28;20018;-81
2021/09/09 05:45:20;;;;;;;;;;;15.60;96.20;;;;;;5057735;28;19909;-80
2021/09/09 05:47:45;;;;;;;;;;;15.60;96.00;;;;;;5066349;28;20379;-81
2021/09/09 05:50:11;;;;;;;;;;;15.60;96.00;;;;;;5058078;28;19909;-81
2021/09/09 05:52:36;;;;;;;;;;;15.70;95.90;;;;;;5057840;28;19912;-80
2021/09/09 05:55:02;;;;;;;;;;;15.80;95.90;;;;;;5065922;28;20452;-80
2021/09/09 05:57:27;;;;;;;;;;;15.80;96.00;;;;;;5059459;28;20012;-81
2021/09/09 05:59:53;;;;;;;;;;;16.00;95.80;;;;;;5058319;28;19916;-80
2021/09/09 06:02:19;;;;;;;;;;;16.00;95.50;;;;;;5060125;28;19925;-80
2021/09/09 06:04:46;;;;;;;;;;;16.10;95.70;;;;;;5058091;28;20392;-80
2021/09/09 06:07:11;;;;;;;;;;;16.20;95.40;;;;;;5073089;28;20054;-80
2021/09/09 06:09:38;;;;;;;;;;;16.20;95.30;;;;;;5072896;28;20103;-81
2021/09/09 06:12:04;;;;;;;;;;;16.30;95.30;;;;;;5078972;22;19911;-76
2021/09/09 06:14:30;;;;;;;;;;;16.30;95.20;;;;;;5073376;28;20326;-73
2021/09/09 06:16:55;;;;;;;;;;;16.40;95.10;;;;;;5075071;28;19924;-76
2021/09/09 06:19:20;;;;;;;;;;;16.50;95.10;;;;;;5085362;28;19919;-78
2021/09/09 06:21:46;;;;;;;;;;;16.50;95.00;;;;;;5083388;28;19994;-78
2021/09/09 06:24:11;;;;;;;;;;;16.60;94.90;;;;;;5072346;28;19947;-76
2021/09/09 06:26:37;;;;;;;;;;;16.70;94.90;;;;;;5078079;28;19909;-77
2021/09/09 06:29:02;;;;;;;;;;;16.70;94.80;;;;;;5076136;28;19918;-77
2021/09/09 06:31:28;;;;;;;;;;;16.70;94.80;;;;;;5076827;28;19926;-77
2021/09/09 06:33:53;;;;;;;;;;;16.80;94.70;;;;;;5075348;28;19917;-76
2021/09/09 06:36:19;;;;;;;;;;;16.80;94.70;;;;;;5076342;28;19920;-77
2021/09/09 06:38:45;;;;;;;;;;;16.90;94.60;;;;;;5078429;28;19913;-78
2021/09/09 06:41:10;;;;;;;;;;;16.90;94.50;;;;;;5075681;28;19916;-81
2021/09/09 06:43:36;;;;;;;;;;;17.00;94.40;;;;;;5078250;28;19969;-79
2021/09/09 06:46:02;;;;;;;;;;;17.10;94.30;;;;;;5076330;28;19976;-77
2021/09/09 06:48:27;;;;;;;;;;;17.10;94.20;;;;;;5072911;28;20018;-78
2021/09/09 06:50:53;;;;;;;;;;;17.20;94.20;;;;;;5076053;28;19912;-78
2021/09/09 06:53:19;;;;;;;;;;;17.30;94.20;;;;;;5073221;28;19916;-79
2021/09/09 06:55:45;;;;;;;;;;;17.40;94.10;;;;;;5076177;28;19919;-81
2021/09/09 06:58:10;;;;;;;;;;;17.50;94.00;;;;;;5075848;28;19915;-79
2021/09/09 07:00:36;;;;;;;;;;;17.60;93.90;;;;;;5075203;28;19916;-75
2021/09/09 07:03:01;;;;;;;;;;;17.80;93.80;;;;;;5075073;28;19916;-75
2021/09/09 07:05:30;;;;;;;;;;;17.90;93.70;;;;;;5075229;28;20362;-77
2021/09/09 07:07:55;;;;;;;;;;;18.00;93.50;;;;;;5076712;28;19912;-76
2021/09/09 07:10:21;;;;;;;;;;;18.00;93.40;;;;;;5075337;28;19920;-76
2021/09/09 07:12:46;;;;;;;;;;;18.20;93.30;;;;;;5075013;28;19923;-79
2021/09/09 07:15:12;;;;;;;;;;;18.20;93.10;;;;;;5075505;28;19916;-79
2021/09/09 07:17:37;;;;;;;;;;;18.30;93.10;;;;;;5075788;28;19987;-79
2021/09/09 07:20:03;;;;;;;;;;;18.50;93.00;;;;;;5074971;28;19923;-78
2021/09/09 07:22:29;;;;;;;;;;;18.60;92.80;;;;;;5074613;28;20385;-79
2021/09/09 07:24:54;;;;;;;;;;;18.60;92.80;;;;;;5074270;28;19913;-76
2021/09/09 07:27:20;;;;;;;;;;;18.70;92.70;;;;;;5075642;28;19923;-78
2021/09/09 07:29:45;;;;;;;;;;;18.80;92.50;;;;;;5076988;28;19962;-76
2021/09/09 07:32:11;;;;;;;;;;;18.90;92.40;;;;;;5074106;28;19916;-77
2021/09/09 07:34:36;;;;;;;;;;;18.90;92.40;;;;;;5073221;28;20329;-77
2021/09/09 07:37:01;;;;;;;;;;;19.00;92.40;;;;;;5077456;28;20341;-77
2021/09/09 07:39:27;;;;;;;;;;;19.10;92.40;;;;;;5076084;28;19916;-79
2021/09/09 07:41:52;;;;;;;;;;;19.10;92.10;;;;;;5076896;28;19917;-81
2021/09/09 07:44:18;;;;;;;;;;;19.10;92.10;;;;;;5071389;28;19912;-80
2021/09/09 07:46:43;;;;;;;;;;;19.20;92.00;;;;;;5078731;28;19908;-81
2021/09/09 07:49:09;;;;;;;;;;;19.30;92.00;;;;;;5078608;28;19916;-77
2021/09/09 07:51:35;;;;;;;;;;;19.40;92.00;;;;;;5076445;28;19916;-80
2021/09/09 07:54:00;;;;;;;;;;;19.60;91.80;;;;;;5075173;28;19916;-78
2021/09/09 07:56:26;;;;;;;;;;;19.80;91.60;;;;;;5074979;28;19922;-78
2021/09/09 07:58:51;;;;;;;;;;;19.80;91.40;;;;;;5076747;28;20333;-79
2021/09/09 08:01:17;;;;;;;;;;;19.90;91.30;;;;;;5072384;28;19923;-79
2021/09/09 08:03:43;;;;;;;;;;;20.00;90.90;;;;;;5065079;28;19932;-77
2021/09/09 08:06:08;;;;;;;;;;;20.10;91.00;;;;;;5079519;28;19925;-77
2021/09/09 08:08:34;;;;;;;;;;;20.20;90.80;;;;;;5081152;28;20002;-77
2021/09/09 08:10:59;;;;;;;;;;;20.20;90.50;;;;;;5080390;28;19920;-77
2021/09/09 08:13:25;;;;;;;;;;;20.40;90.30;;;;;;5077349;28;19916;-77
2021/09/09 08:15:50;;;;;;;;;;;20.60;90.20;;;;;;5077752;28;19920;-78
2021/09/09 08:18:16;;;;;;;;;;;20.70;90.00;;;;;;5078694;28;19982;-78
2021/09/09 08:20:41;;;;;;;;;;;20.70;89.40;;;;;;5077652;28;19916;-82
2021/09/09 08:23:07;;;;;;;;;;;20.80;89.60;;;;;;5078838;28;20315;-80
2021/09/09 08:25:32;;;;;;;;;;;20.90;89.60;;;;;;5078235;28;19912;-79
2021/09/09 08:27:58;;;;;;;;;;;21.00;89.20;;;;;;5080551;28;19935;-79
2021/09/09 08:30:23;;;;;;;;;;;21.10;88.80;;;;;;5075964;28;19919;-79
2021/09/09 08:32:49;;;;;;;;;;;21.30;88.70;;;;;;5077466;28;20050;-79
2021/09/09 08:35:14;;;;;;;;;;;21.40;88.20;;;;;;5078962;28;19916;-81
2021/09/09 08:37:39;;;;;;;;;;;21.50;87.30;;;;;;5074975;28;19924;-83
2021/09/09 08:40:07;;;;;;;;;;;21.60;87.10;;;;;;5077910;28;20050;-79
2021/09/09 08:42:33;;;;;;;;;;;21.80;87.00;;;;;;5077335;28;19931;-79
2021/09/09 08:44:59;;;;;;;;;;;22.00;85.90;;;;;;5077995;28;19912;-79
2021/09/09 08:47:25;;;;;;;;;;;22.10;85.70;;;;;;5077004;28;19955;-79
2021/09/09 08:49:51;;;;;;;;;;;22.10;85.20;;;;;;5078288;28;19923;-79
2021/09/09 08:52:16;;;;;;;;;;;22.20;85.20;;;;;;5077658;28;19916;-79
2021/09/09 08:54:41;;;;;;;;;;;22.20;84.90;;;;;;5077663;28;19916;-80
2021/09/09 08:57:07;;;;;;;;;;;22.30;84.90;;;;;;5076855;28;19923;-82
2021/09/09 08:59:34;;;;;;;;;;;22.40;84.90;;;;;;5077272;28;19942;-82
2021/09/09 09:01:59;;;;;;;;;;;22.60;84.10;;;;;;5079723;28;19978;-81
2021/09/09 09:04:25;;;;;;;;;;;22.70;84.20;;;;;;5077467;28;20050;-80
2021/09/09 09:06:51;;;;;;;;;;;22.80;84.00;;;;;;5077233;28;19913;-80
2021/09/09 09:09:19;;;;;;;;;;;22.80;82.80;;;;;;5081946;28;20002;-80
2021/09/09 09:11:45;;;;;;;;;;;22.90;82.80;;;;;;5079681;28;19934;-80
2021/09/09 09:14:12;;;;;;;;;;;22.90;82.50;;;;;;5017244;28;1693439;-80
2021/09/09 09:16:44;;;;;;;;;;;22.90;82.30;;;;;;5078109;28;19981;-80
2021/09/09 09:19:11;;;;;;;;;;;23.00;82.60;;;;;;5082212;28;20584;-80
2021/09/09 09:21:41;;;;;;;;;;;23.10;82.10;;;;;;5083327;28;19965;-80
2021/09/09 09:24:07;;;;;;;;;;;23.20;82.20;;;;;;5079670;28;19916;-81
2021/09/09 09:26:32;;;;;;;;;;;23.30;82.20;;;;;;5078960;28;19938;-81
2021/09/09 09:28:59;;;;;;;;;;;23.30;81.50;;;;;;5079256;28;19912;-83
2021/09/09 09:31:26;;;;;;;;;;;23.40;81.40;;;;;;5076575;28;19921;-83
2021/09/09 09:33:56;;;;;;;;;;;23.50;79.70;;;;;;5076479;28;19916;-80
2021/09/09 09:36:22;;;;;;;;;;;23.50;79.70;;;;;;5095143;28;19966;-80
2021/09/09 09:38:49;;;;;;;;;;;23.70;78.90;;;;;;5078560;28;19912;-79
2021/09/09 09:41:17;;;;;;;;;;;23.90;78.10;;;;;;5077634;28;19912;-78
2021/09/09 09:43:49;;;;;;;;;;;24.10;78.00;;;;;;5078712;28;20397;-79
2021/09/09 09:46:25;;;;;;;;;;;24.20;77.50;;;;;;5077532;28;20015;-79
2021/09/09 09:48:53;;;;;;;;;;;24.20;76.70;;;;;;5077073;28;20352;-80
2021/09/09 09:51:37;;;;;;;;;;;24.30;77.20;;;;;;5092077;28;20367;-82
2021/09/09 09:54:07;;;;;;;;;;;24.30;76.30;;;;;;5077580;28;19954;-79
2021/09/09 09:56:36;;;;;;;;;;;24.30;76.90;;;;;;5077441;28;19916;-80
2021/09/09 09:59:01;;;;;;;;;;;24.30;76.90;;;;;;5078536;28;19920;-81
2021/09/09 10:01:27;;;;;;;;;;;24.40;77.00;;;;;;5077875;28;19916;-78
2021/09/09 10:03:53;;;;;;;;;;;24.50;77.30;;;;;;5077210;28;20287;-77
2021/09/09 10:06:19;;;;;;;;;;;24.70;77.10;;;;;;5078092;28;19970;-75
2021/09/09 10:08:45;;;;;;;;;;;24.90;76.70;;;;;;5073804;28;19923;-76
2021/09/09 10:11:11;;;;;;;;;;;25.00;75.20;;;;;;5091070;28;19969;-76
2021/09/09 10:13:37;;;;;;;;;;;25.00;75.50;;;;;;5076936;28;19922;-77
2021/09/09 10:16:03;;;;;;;;;;;25.10;75.50;;;;;;5079024;28;19920;-76
2021/09/09 10:18:28;;;;;;;;;;;25.10;75.60;;;;;;5076518;28;19917;-77
2021/09/09 10:20:54;;;;;;;;;;;25.20;74.40;;;;;;5075540;28;20267;-76
2021/09/09 10:23:25;;;;;;;;;;;25.40;73.80;;;;;;5077596;28;20008;-76
2021/09/09 10:25:53;;;;;;;;;;;25.50;73.60;;;;;;5073090;28;19927;-75
2021/09/09 10:28:39;;;;;;;;;;;25.70;73.20;;;;;;5075459;28;20293;-76
2021/09/09 10:31:06;;;;;;;;;;;25.90;73.10;;;;;;5078186;28;19912;-75
2021/09/09 10:33:31;;;;;;;;;;;25.90;71.10;;;;;;5061106;28;19908;-76
2021/09/09 10:35:57;;;;;;;;;;;26.00;71.10;;;;;;5077282;28;20310;-76
2021/09/09 10:38:25;;;;;;;;;;;26.10;72.50;;;;;;5075634;28;19912;-76
2021/09/09 10:40:51;;;;;;;;;;;26.20;69.90;;;;;;5076916;28;19912;-76
2021/09/09 10:43:22;;;;;;;;;;;26.20;69.00;;;;;;5076310;28;20228;-76
2021/09/09 10:45:47;;;;;;;;;;;26.30;68.40;;;;;;5076445;28;19915;-76
2021/09/09 10:48:22;;;;;;;;;;;26.30;69.00;;;;;;5075992;28;19920;-76
2021/09/09 10:50:58;;;;;;;;;;;26.40;68.60;;;;;;5093684;28;20360;-74
2021/09/09 10:53:37;;;;;;;;;;;26.50;68.20;;;;;;5074825;28;19966;-75
2021/09/09 10:56:14;;;;;;;;;;;26.60;68.30;;;;;;5077820;28;20436;-75
2021/09/09 10:58:40;;;;;;;;;;;26.70;68.10;;;;;;5075734;28;19923;-76
2021/09/09 11:01:06;;;;;;;;;;;26.80;67.80;;;;;;5079397;28;19912;-76
2021/09/09 11:03:39;;;;;;;;;;;26.80;67.70;;;;;;5075618;28;19923;-77
2021/09/09 11:06:15;;;;;;;;;;;26.90;66.80;;;;;;5078501;28;20421;-76
2021/09/09 11:08:42;;;;;;;;;;;26.80;67.10;;;;;;5077569;28;20279;-74
2021/09/09 11:11:12;;;;;;;;;;;26.80;65.60;;;;;;5077917;28;19908;-74
2021/09/09 11:13:38;;;;;;;;;;;26.80;66.80;;;;;;5078220;28;20011;-76
2021/09/09 11:16:24;;;;;;;;;;;26.90;66.30;;;;;;5077215;28;20325;-75
2021/09/09 11:18:49;;;;;;;;;;;27.00;65.90;;;;;;5078413;28;19912;-75
2021/09/09 11:21:16;;;;;;;;;;;26.90;64.60;;;;;;5075002;28;20289;-75
2021/09/09 11:23:41;;;;;;;;;;;27.00;65.40;;;;;;5059621;28;19979;-75
2021/09/09 11:26:14;;;;;;;;;;;27.10;64.20;;;;;;5076940;28;19920;-77
2021/09/09 11:28:40;;;;;;;;;;;27.30;65.30;;;;;;5078709;28;19923;-74
2021/09/09 11:31:11;;;;;;;;;;;27.40;64.50;;;;;;5077015;28;19909;-73
2021/09/09 11:33:50;;;;;;;;;;;27.40;62.80;;;;;;5078568;28;20003;-73
2021/09/09 11:36:16;;;;;;;;;;;27.40;63.80;;;;;;5078862;28;19927;-74
2021/09/09 11:38:41;;;;;;;;;;;27.40;63.40;;;;;;5081639;28;20432;-73
2021/09/09 11:41:08;;;;;;;;;;;27.60;63.80;;;;;;5081754;28;19920;-78
2021/09/09 11:43:34;;;;;;;;;;;27.70;62.90;;;;;;5080256;28;19918;-77
2021/09/09 11:45:59;;;;;;;;;;;27.70;62.60;;;;;;5080731;28;20011;-77
2021/09/09 11:48:25;;;;;;;;;;;27.80;62.80;;;;;;5082503;28;19991;-77
2021/09/09 11:50:50;;;;;;;;;;;27.90;62.60;;;;;;5081613;28;20685;-78
2021/09/09 11:53:26;;;;;;;;;;;28.00;61.00;;;;;;5080614;28;20421;-77
2021/09/09 11:55:52;;;;;;;;;;;28.00;61.00;;;;;;5081418;28;19916;-76
2021/09/09 11:58:34;;;;;;;;;;;27.90;59.70;;;;;;5080824;28;20002;-75
2021/09/09 12:01:00;;;;;;;;;;;27.90;60.60;;;;;;5080515;28;19919;-76
2021/09/09 12:03:25;;;;;;;;;;;28.00;60.30;;;;;;5079990;28;19923;-75
2021/09/09 12:05:52;;;;;;;;;;;28.00;59.80;;;;;;5080333;28;19916;-75
2021/09/09 12:08:18;;;;;;;;;;;28.20;60.50;;;;;;5080779;28;19916;-75
2021/09/09 12:10:44;;;;;;;;;;;28.40;60.60;;;;;;5081284;28;19962;-75
2021/09/09 12:13:10;;;;;;;;;;;28.50;59.80;;;;;;5097697;22;20412;-73
2021/09/09 12:15:36;;;;;;;;;;;28.60;59.40;;;;;;5076600;28;19925;-73
2021/09/09 12:18:11;;;;;;;;;;;28.60;59.50;;;;;;5069791;28;19931;-74
2021/09/09 12:20:38;;;;;;;;;;;28.70;59.00;;;;;;5071423;28;20205;-73
2021/09/09 12:23:03;;;;;;;;;;;28.60;58.00;;;;;;5070785;28;20437;-73
2021/09/09 12:25:36;;;;;;;;;;;28.50;59.30;;;;;;5070742;28;20098;-74
2021/09/09 12:28:07;;;;;;;;;;;28.70;59.40;;;;;;5068024;28;19919;-74
2021/09/09 12:30:37;;;;;;;;;;;28.80;58.40;;;;;;5070009;28;19934;-75
2021/09/09 12:33:03;;;;;;;;;;;28.70;58.30;;;;;;5069977;28;19909;-75
2021/09/09 12:35:29;;;;;;;;;;;28.60;57.40;;;;;;5069668;28;19920;-74
2021/09/09 12:38:05;;;;;;;;;;;28.40;57.80;;;;;;5070873;28;19935;-75
2021/09/09 12:40:42;;;;;;;;;;;28.40;58.60;;;;;;5069293;28;19912;-76
2021/09/09 12:43:24;;;;;;;;;;;28.60;58.40;;;;;;5068925;28;19919;-74
2021/09/09 12:45:50;;;;;;;;;;;28.70;58.30;;;;;;5069441;28;19917;-74
2021/09/09 12:48:15;;;;;;;;;;;28.70;58.10;;;;;;5070850;28;20303;-74
2021/09/09 12:50:50;;;;;;;;;;;28.90;58.50;;;;;;5070708;28;19913;-75
2021/09/09 12:53:15;;;;;;;;;;;29.00;57.80;;;;;;5068855;28;20011;-76
2021/09/09 12:55:41;;;;;;;;;;;29.00;58.00;;;;;;5076408;28;19999;-75
2021/09/09 12:58:10;;;;;;;;;;;29.10;58.00;;;;;;5069191;28;20385;-78
2021/09/09 13:00:35;;;;;;;;;;;29.20;57.90;;;;;;5069539;28;20024;-77
2021/09/09 13:03:01;;;;;;;;;;;29.30;57.50;;;;;;5068190;28;20438;-75
2021/09/09 13:05:26;;;;;;;;;;;29.20;56.70;;;;;;5068986;28;19919;-78
2021/09/09 13:07:52;;;;;;;;;;;29.30;57.00;;;;;;5070501;28;19916;-77
2021/09/09 13:10:17;;;;;;;;;;;29.30;55.80;;;;;;5093891;28;19920;-75
2021/09/09 13:12:43;;;;;;;;;;;29.30;56.10;;;;;;5093616;28;19913;-75
2021/09/09 13:15:08;;;;;;;;;;;29.10;56.00;;;;;;5068744;28;20027;-77
2021/09/09 13:17:34;;;;;;;;;;;29.10;55.90;;;;;;5066154;28;20275;-75
2021/09/09 13:19:59;;;;;;;;;;;29.20;56.10;;;;;;5070339;28;20299;-75
2021/09/09 13:22:25;;;;;;;;;;;29.10;55.70;;;;;;5069023;28;19917;-75
2021/09/09 13:24:50;;;;;;;;;;;29.20;55.50;;;;;;5068643;28;20315;-74
2021/09/09 13:27:16;;;;;;;;;;;29.20;55.00;;;;;;5070386;28;19908;-75
2021/09/09 13:29:41;;;;;;;;;;;29.20;55.90;;;;;;5069786;28;20268;-75
2021/09/09 13:32:07;;;;;;;;;;;29.20;56.30;;;;;;5068189;28;19924;-77
2021/09/09 13:34:32;;;;;;;;;;;29.30;55.50;;;;;;5066178;28;19927;-74
2021/09/09 13:36:57;;;;;;;;;;;29.50;55.40;;;;;;5069773;28;20015;-76
2021/09/09 13:39:23;;;;;;;;;;;29.40;55.00;;;;;;5070114;28;19960;-76
2021/09/09 13:41:48;;;;;;;;;;;29.40;54.70;;;;;;5069243;28;20011;-77
2021/09/09 13:44:14;;;;;;;;;;;29.30;54.70;;;;;;5069027;28;20302;-75
2021/09/09 13:46:39;;;;;;;;;;;29.30;54.90;;;;;;5067757;28;19956;-75
2021/09/09 13:49:05;;;;;;;;;;;29.20;55.20;;;;;;5067596;28;19939;-79
2021/09/09 13:51:30;;;;;;;;;;;29.30;55.30;;;;;;5067795;28;20259;-78
2021/09/09 13:53:55;;;;;;;;;;;29.30;54.80;;;;;;5068598;28;19921;-81
2021/09/09 13:56:21;;;;;;;;;;;29.20;55.30;;;;;;5068478;28;19928;-81
2021/09/09 13:58:46;;;;;;;;;;;29.30;54.50;;;;;;5069021;28;19913;-81
2021/09/09 14:01:14;;;;;;;;;;;29.30;54.10;;;;;;5068103;28;19909;-81
2021/09/09 14:03:39;;;;;;;;;;;29.30;54.20;;;;;;5068449;28;19917;-81
2021/09/09 14:06:04;;;;;;;;;;;29.30;54.20;;;;;;5068812;28;19970;-80
2021/09/09 14:08:30;;;;;;;;;;;29.40;54.10;;;;;;5067801;28;19921;-81
2021/09/09 14:10:55;;;;;;;;;;;29.40;53.90;;;;;;5068973;28;19920;-81
2021/09/09 14:13:21;;;;;;;;;;;29.50;53.60;;;;;;5068421;28;19927;-81